Aérodrome :
LOGIN :

S'inscrire | Disclaimer

   EN    FR    IT 

 










Légende :    VFR   VFR Marginal   IFR   IFR Intensif   IFR Très Intensif
Visi : 
Plafond : 
>= 8 km
>= 3000ft
5 à 8 km
1000 à 3000 ft
1500m à 5 km
500 à 1000 ft
800 à 1500m
200 à 500 ft
< 800m
< 200 ft
Symboles :   Orages  Brouillard  Fortes neiges  Fortes précipitations  Vent > 20 kt
SIGMETs :   Divers  Orages  Givrage  Turbulence  Onde Orograph.  Cendres Volcan.






- Altitude de l'aérodrome : 788 ft
- Code IATA : DCM


LFCK - Castres-Mazamet

DERNIER METAR :
  • 022200Z AUTO 12005KT CAVOK 17/14 Q1014

METARs EXPIRÉS :
  • 022130Z AUTO 12004KT CAVOK 18/14 Q1014 NOSIG
  • 022100Z AUTO 14006KT CAVOK 19/14 Q1014 NOSIG
  • 022030Z AUTO 13006KT CAVOK 19/14 Q1014 NOSIG
  • 022000Z AUTO 14007KT CAVOK 21/15 Q1014 NOSIG
  • 021930Z AUTO 15004KT CAVOK 22/15 Q1014 NOSIG

TAF TAF LFCK
Valide du 02 à 18h jusqu'au 03 à 03h UTC


021700Z 0218/0303 14006KT CAVOK
BECMG 0222/0224 VRB03KT



MET'MAP, la Météo Aéronautique d'un coup d'oeil ! - Copyright ORBIFLY Décembre 2007 - Disclaimer

ORBIFLY MET'MAP TEAM :

Programmation & Développement : Alexandra Zaïnal
Sur une idée originale de : Baudouin d'Aumeries
Assistance à la programmation : Marc-Olivier Méhu
Soutien technique & logistique : Manuel Goepfert

Contact : metmap@orbifly.com




SOURCES & CREDITS :

   NOAA